sensor_id;sensor_type;location;lat;lon;timestamp;pressure;altitude;pressure_sealevel;temperature;humidity
61682;BME280;47577;43.610;25.010;2023-03-14T00:01:45;100745.69;;;0.66;71.80
61682;BME280;47577;43.610;25.010;2023-03-14T00:04:11;100746.69;;;0.79;70.83
61682;BME280;47577;43.610;25.010;2023-03-14T00:06:36;100738.72;;;0.69;70.79
61682;BME280;47577;43.610;25.010;2023-03-14T00:09:02;100743.91;;;0.65;71.68
61682;BME280;47577;43.610;25.010;2023-03-14T00:11:28;100736.91;;;0.62;71.13
61682;BME280;47577;43.610;25.010;2023-03-14T00:13:54;100736.84;;;0.56;70.36
61682;BME280;47577;43.610;25.010;2023-03-14T00:16:20;100728.88;;;0.48;71.48
61682;BME280;47577;43.610;25.010;2023-03-14T00:18:46;100726.25;;;0.47;71.70
61682;BME280;47577;43.610;25.010;2023-03-14T00:21:12;100718.50;;;0.54;70.91
61682;BME280;47577;43.610;25.010;2023-03-14T00:23:39;100719.34;;;0.50;71.33
61682;BME280;47577;43.610;25.010;2023-03-14T00:26:07;100726.25;;;0.48;71.74
61682;BME280;47577;43.610;25.010;2023-03-14T00:28:34;100725.53;;;-0.06;73.45
61682;BME280;47577;43.610;25.010;2023-03-14T00:31:01;100724.25;;;0.27;73.03
61682;BME280;47577;43.610;25.010;2023-03-14T00:33:27;100722.72;;;0.45;72.95
61682;BME280;47577;43.610;25.010;2023-03-14T00:35:53;100721.94;;;0.49;71.65
61682;BME280;47577;43.610;25.010;2023-03-14T00:38:19;100726.38;;;0.56;71.72
61682;BME280;47577;43.610;25.010;2023-03-14T00:40:44;100723.88;;;0.65;70.79
61682;BME280;47577;43.610;25.010;2023-03-14T00:43:09;100726.22;;;0.45;72.08
61682;BME280;47577;43.610;25.010;2023-03-14T00:45:35;100718.34;;;0.41;70.96
61682;BME280;47577;43.610;25.010;2023-03-14T00:48:00;100726.03;;;0.30;72.04
61682;BME280;47577;43.610;25.010;2023-03-14T00:50:26;100724.41;;;0.40;72.35
61682;BME280;47577;43.610;25.010;2023-03-14T00:52:51;100723.63;;;0.47;71.67
61682;BME280;47577;43.610;25.010;2023-03-14T00:55:17;100710.56;;;0.48;72.12
61682;BME280;47577;43.610;25.010;2023-03-14T00:57:42;100718.41;;;0.48;71.30
61682;BME280;47577;43.610;25.010;2023-03-14T01:00:07;100710.31;;;0.28;71.82
61682;BME280;47577;43.610;25.010;2023-03-14T01:02:36;100709.44;;;0.26;71.63
61682;BME280;47577;43.610;25.010;2023-03-14T01:05:02;100705.03;;;0.25;71.58
61682;BME280;47577;43.610;25.010;2023-03-14T01:07:27;100699.84;;;0.27;71.93
61682;BME280;47577;43.610;25.010;2023-03-14T01:09:53;100699.06;;;0.35;71.86
61682;BME280;47577;43.610;25.010;2023-03-14T01:12:18;100711.13;;;0.24;71.73
61682;BME280;47577;43.610;25.010;2023-03-14T01:14:43;100706.47;;;0.00;73.36
61682;BME280;47577;43.610;25.010;2023-03-14T01:17:09;100704.91;;;0.16;71.99
61682;BME280;47577;43.610;25.010;2023-03-14T01:19:34;100698.09;;;0.27;72.70
61682;BME280;47577;43.610;25.010;2023-03-14T01:22:00;100697.25;;;0.28;71.87
61682;BME280;47577;43.610;25.010;2023-03-14T01:24:25;100691.94;;;0.22;72.62
61682;BME280;47577;43.610;25.010;2023-03-14T01:26:51;100698.25;;;-0.23;75.05
61682;BME280;47577;43.610;25.010;2023-03-14T01:29:16;100685.63;;;0.08;74.22
61682;BME280;47577;43.610;25.010;2023-03-14T01:31:41;100691.78;;;0.11;73.86
61682;BME280;47577;43.610;25.010;2023-03-14T01:34:07;100693.88;;;-0.26;74.01
61682;BME280;47577;43.610;25.010;2023-03-14T01:36:32;100684.53;;;-0.11;72.81
61682;BME280;47577;43.610;25.010;2023-03-14T01:38:58;100681.88;;;-0.13;72.91
61682;BME280;47577;43.610;25.010;2023-03-14T01:41:24;100681.13;;;-0.04;74.08
61682;BME280;47577;43.610;25.010;2023-03-14T01:43:50;100676.75;;;-0.04;72.82
61682;BME280;47577;43.610;25.010;2023-03-14T01:46:20;100676.69;;;-0.08;72.59
61682;BME280;47577;43.610;25.010;2023-03-14T01:48:49;100678.28;;;-0.20;73.86
61682;BME280;47577;43.610;25.010;2023-03-14T01:51:50;100677.63;;;-0.06;72.64
61682;BME280;47577;43.610;25.010;2023-03-14T01:54:10;100673.13;;;-0.15;73.18
61682;BME280;47577;43.610;25.010;2023-03-14T01:56:37;100670.47;;;-0.16;73.38
61682;BME280;47577;43.610;25.010;2023-03-14T01:59:04;100669.69;;;-0.11;73.46
61682;BME280;47577;43.610;25.010;2023-03-14T02:01:31;100672.41;;;-0.05;73.62
61682;BME280;47577;43.610;25.010;2023-03-14T02:03:59;100673.13;;;-0.13;74.31
61682;BME280;47577;43.610;25.010;2023-03-14T02:06:27;100669.50;;;-0.23;73.96
61682;BME280;47577;43.610;25.010;2023-03-14T02:08:54;100675.72;;;-0.16;73.72
61682;BME280;47577;43.610;25.010;2023-03-14T02:11:20;100669.69;;;-0.11;73.63
61682;BME280;47577;43.610;25.010;2023-03-14T02:13:46;100668.81;;;-0.13;74.13
61682;BME280;47577;43.610;25.010;2023-03-14T02:16:12;100671.34;;;-0.17;73.79
61682;BME280;47577;43.610;25.010;2023-03-14T02:18:37;100680.00;;;-0.20;74.85
61682;BME280;47577;43.610;25.010;2023-03-14T02:21:08;100678.00;;;-0.40;75.41
61682;BME280;47577;43.610;25.010;2023-03-14T02:23:39;100675.44;;;-0.37;75.39
61682;BME280;47577;43.610;25.010;2023-03-14T02:26:09;100677.28;;;-0.28;75.05
61682;BME280;47577;43.610;25.010;2023-03-14T02:28:36;100671.19;;;-0.28;74.91
61682;BME280;47577;43.610;25.010;2023-03-14T02:31:01;100674.81;;;-0.19;74.89
61682;BME280;47577;43.610;25.010;2023-03-14T02:33:27;100672.97;;;-0.26;75.30
61682;BME280;47577;43.610;25.010;2023-03-14T02:35:53;100674.41;;;-0.46;75.79
61682;BME280;47577;43.610;25.010;2023-03-14T02:40:46;100663.22;;;-0.36;75.87
61682;BME280;47577;43.610;25.010;2023-03-14T02:43:11;100665.16;;;-0.24;75.61
61682;BME280;47577;43.610;25.010;2023-03-14T02:45:42;100664.22;;;-0.28;75.30
61682;BME280;47577;43.610;25.010;2023-03-14T02:48:13;100665.94;;;-0.30;75.17
61682;BME280;47577;43.610;25.010;2023-03-14T02:50:39;100670.56;;;-0.68;75.82
61682;BME280;47577;43.610;25.010;2023-03-14T02:53:05;100677.13;;;-0.94;77.60
61682;BME280;47577;43.610;25.010;2023-03-14T02:55:30;100671.94;;;-0.90;76.79
61682;BME280;47577;43.610;25.010;2023-03-14T02:57:56;100669.91;;;-0.57;76.53
61682;BME280;47577;43.610;25.010;2023-03-14T03:00:21;100665.59;;;-0.53;76.04
61682;BME280;47577;43.610;25.010;2023-03-14T03:02:47;100655.13;;;-0.54;76.37
61682;BME280;47577;43.610;25.010;2023-03-14T03:05:13;100663.31;;;-0.31;75.39
61682;BME280;47577;43.610;25.010;2023-03-14T03:07:38;100652.88;;;-0.30;74.99
61682;BME280;47577;43.610;25.010;2023-03-14T03:10:04;100655.38;;;-0.36;74.86
61682;BME280;47577;43.610;25.010;2023-03-14T03:12:29;100645.56;;;-0.52;74.87
61682;BME280;47577;43.610;25.010;2023-03-14T03:14:55;100654.41;;;-0.44;74.39
61682;BME280;47577;43.610;25.010;2023-03-14T03:19:55;100639.94;;;-0.79;75.35
61682;BME280;47577;43.610;25.010;2023-03-14T03:22:21;100635.13;;;-0.52;75.22
61682;BME280;47577;43.610;25.010;2023-03-14T03:24:46;100640.56;;;-0.39;75.96
61682;BME280;47577;43.610;25.010;2023-03-14T03:27:12;100634.38;;;-0.42;75.67
61682;BME280;47577;43.610;25.010;2023-03-14T03:29:37;100638.03;;;-0.31;75.98
61682;BME280;47577;43.610;25.010;2023-03-14T03:32:03;100629.31;;;-0.33;75.05
61682;BME280;47577;43.610;25.010;2023-03-14T03:34:28;100630.88;;;-0.44;76.14
61682;BME280;47577;43.610;25.010;2023-03-14T03:36:55;100632.63;;;-0.45;75.86
61682;BME280;47577;43.610;25.010;2023-03-14T03:39:22;100626.75;;;-0.30;76.05
61682;BME280;47577;43.610;25.010;2023-03-14T03:41:48;100621.34;;;-0.41;75.10
61682;BME280;47577;43.610;25.010;2023-03-14T04:00:18;100622.09;;;-0.49;76.15
61682;BME280;47577;43.610;25.010;2023-03-14T04:02:43;100620.44;;;-0.44;75.58
61682;BME280;47577;43.610;25.010;2023-03-14T04:05:09;100616.13;;;-0.41;75.37
61682;BME280;47577;43.610;25.010;2023-03-14T04:07:34;100611.03;;;-0.31;75.41
61682;BME280;47577;43.610;25.010;2023-03-14T04:10:00;100615.31;;;-0.38;76.00
61682;BME280;47577;43.610;25.010;2023-03-14T04:12:25;100604.81;;;-0.40;75.23
61682;BME280;47577;43.610;25.010;2023-03-14T04:14:51;100598.72;;;-0.42;74.88
61682;BME280;47577;43.610;25.010;2023-03-14T04:17:17;100602.16;;;-0.43;75.66
61682;BME280;47577;43.610;25.010;2023-03-14T04:19:42;100602.94;;;-1.06;77.85
61682;BME280;47577;43.610;25.010;2023-03-14T04:22:08;100588.81;;;-0.63;77.46
61682;BME280;47577;43.610;25.010;2023-03-14T04:24:34;100597.69;;;-0.51;76.46
61682;BME280;47577;43.610;25.010;2023-03-14T04:26:59;100591.78;;;-0.38;75.48
61682;BME280;47577;43.610;25.010;2023-03-14T04:29:25;100593.28;;;-0.54;75.27
61682;BME280;47577;43.610;25.010;2023-03-14T04:34:26;100595.72;;;-0.68;76.29
61682;BME280;47577;43.610;25.010;2023-03-14T04:36:52;100598.38;;;-0.63;77.55
61682;BME280;47577;43.610;25.010;2023-03-14T04:39:18;100595.09;;;-0.51;76.33
61682;BME280;47577;43.610;25.010;2023-03-14T04:41:46;100596.94;;;-0.43;75.13
61682;BME280;47577;43.610;25.010;2023-03-14T04:44:12;100597.78;;;-0.47;76.08
61682;BME280;47577;43.610;25.010;2023-03-14T04:46:37;100592.88;;;-0.82;76.91
61682;BME280;47577;43.610;25.010;2023-03-14T04:51:38;100590.28;;;-0.80;77.28
61682;BME280;47577;43.610;25.010;2023-03-14T04:54:03;100589.66;;;-0.65;76.45
61682;BME280;47577;43.610;25.010;2023-03-14T05:04:15;100595.78;;;-0.62;77.69
61682;BME280;47577;43.610;25.010;2023-03-14T05:06:40;100588.38;;;-0.34;76.56
61682;BME280;47577;43.610;25.010;2023-03-14T05:09:07;100590.22;;;-0.25;76.32
61682;BME280;47577;43.610;25.010;2023-03-14T05:11:32;100589.41;;;-0.20;75.37
61682;BME280;47577;43.610;25.010;2023-03-14T05:16:33;100582.56;;;-0.11;76.24
61682;BME280;47577;43.610;25.010;2023-03-14T05:18:58;100588.41;;;-0.32;76.48
61682;BME280;47577;43.610;25.010;2023-03-14T05:21:26;100589.25;;;-0.33;77.05
61682;BME280;47577;43.610;25.010;2023-03-14T05:23:51;100585.19;;;-0.08;76.81
61682;BME280;47577;43.610;25.010;2023-03-14T05:26:17;100589.63;;;-0.03;77.05
61682;BME280;47577;43.610;25.010;2023-03-14T05:28:44;100587.31;;;0.24;75.56
61682;BME280;47577;43.610;25.010;2023-03-14T05:31:09;100583.03;;;0.30;75.94
61682;BME280;47577;43.610;25.010;2023-03-14T05:33:35;100585.88;;;0.49;74.99
61682;BME280;47577;43.610;25.010;2023-03-14T05:36:00;100583.44;;;0.70;75.31
61682;BME280;47577;43.610;25.010;2023-03-14T05:38:25;100589.78;;;0.96;73.35
61682;BME280;47577;43.610;25.010;2023-03-14T05:40:51;100581.75;;;0.76;76.76
61682;BME280;47577;43.610;25.010;2023-03-14T05:43:16;100581.13;;;1.03;74.24
61682;BME280;47577;43.610;25.010;2023-03-14T05:45:42;100581.28;;;1.26;73.14
61682;BME280;47577;43.610;25.010;2023-03-14T05:48:07;100578.78;;;1.43;74.04
61682;BME280;47577;43.610;25.010;2023-03-14T05:50:33;100573.66;;;1.63;72.25
61682;BME280;47577;43.610;25.010;2023-03-14T05:52:58;100575.47;;;1.78;71.44
61682;BME280;47577;43.610;25.010;2023-03-14T05:55:24;100572.06;;;1.93;70.56
61682;BME280;47577;43.610;25.010;2023-03-14T05:57:50;100570.31;;;1.93;69.32
61682;BME280;47577;43.610;25.010;2023-03-14T06:00:16;100566.81;;;1.99;69.07
61682;BME280;47577;43.610;25.010;2023-03-14T06:02:41;100568.63;;;2.05;69.16
61682;BME280;47577;43.610;25.010;2023-03-14T06:05:07;100563.41;;;2.23;71.22
61682;BME280;47577;43.610;25.010;2023-03-14T06:07:32;100564.31;;;2.33;69.66
61682;BME280;47577;43.610;25.010;2023-03-14T06:09:58;100566.09;;;2.38;68.82
61682;BME280;47577;43.610;25.010;2023-03-14T06:12:25;100567.84;;;2.50;68.14
61682;BME280;47577;43.610;25.010;2023-03-14T06:14:50;100572.22;;;2.59;68.26
61682;BME280;47577;43.610;25.010;2023-03-14T06:17:15;100569.66;;;2.85;67.88
61682;BME280;47577;43.610;25.010;2023-03-14T06:19:41;100570.53;;;3.09;67.11
61682;BME280;47577;43.610;25.010;2023-03-14T06:22:06;100576.66;;;3.29;66.80
61682;BME280;47577;43.610;25.010;2023-03-14T06:24:33;100572.19;;;3.58;67.90
61682;BME280;47577;43.610;25.010;2023-03-14T06:26:59;100562.50;;;3.78;65.94
61682;BME280;47577;43.610;25.010;2023-03-14T06:29:24;100565.09;;;3.97;65.76
61682;BME280;47577;43.610;25.010;2023-03-14T06:31:50;100571.13;;;4.17;67.16
61682;BME280;47577;43.610;25.010;2023-03-14T06:34:15;100564.91;;;4.31;66.11
61682;BME280;47577;43.610;25.010;2023-03-14T06:36:40;100562.22;;;4.43;64.46
61682;BME280;47577;43.610;25.010;2023-03-14T06:39:07;100562.16;;;4.51;64.69
61682;BME280;47577;43.610;25.010;2023-03-14T06:41:32;100570.88;;;4.62;63.97
61682;BME280;47577;43.610;25.010;2023-03-14T06:43:58;100569.94;;;4.69;63.06
61682;BME280;47577;43.610;25.010;2023-03-14T06:46:23;100569.84;;;4.82;62.88
61682;BME280;47577;43.610;25.010;2023-03-14T06:48:49;100571.53;;;4.92;63.03
61682;BME280;47577;43.610;25.010;2023-03-14T06:51:14;100564.34;;;5.11;61.18
61682;BME280;47577;43.610;25.010;2023-03-14T06:53:41;100566.94;;;5.16;61.17
61682;BME280;47577;43.610;25.010;2023-03-14T06:56:07;100559.81;;;5.25;61.44
61682;BME280;47577;43.610;25.010;2023-03-14T06:58:32;100556.19;;;5.37;59.49
61682;BME280;47577;43.610;25.010;2023-03-14T07:00:58;100562.16;;;5.55;58.87
61682;BME280;47577;43.610;25.010;2023-03-14T07:03:24;100557.72;;;5.58;59.14
61682;BME280;47577;43.610;25.010;2023-03-14T07:05:49;100551.38;;;5.76;59.18
61682;BME280;47577;43.610;25.010;2023-03-14T07:08:15;100549.47;;;5.88;59.28
61682;BME280;47577;43.610;25.010;2023-03-14T07:10:40;100548.50;;;5.99;59.81
61682;BME280;47577;43.610;25.010;2023-03-14T07:13:06;100544.78;;;6.14;59.92
61682;BME280;47577;43.610;25.010;2023-03-14T07:15:31;100550.84;;;6.21;60.64
61682;BME280;47577;43.610;25.010;2023-03-14T07:17:57;100554.22;;;6.34;59.24
61682;BME280;47577;43.610;25.010;2023-03-14T07:20:22;100548.69;;;6.49;59.35
61682;BME280;47577;43.610;25.010;2023-03-14T07:22:48;100552.22;;;6.50;57.77
61682;BME280;47577;43.610;25.010;2023-03-14T07:25:17;100551.97;;;6.67;58.45
61682;BME280;47577;43.610;25.010;2023-03-14T07:27:43;100542.19;;;6.72;56.71
61682;BME280;47577;43.610;25.010;2023-03-14T07:30:10;100535.88;;;6.82;56.07
61682;BME280;47577;43.610;25.010;2023-03-14T07:32:35;100541.00;;;6.91;59.08
61682;BME280;47577;43.610;25.010;2023-03-14T07:35:01;100540.75;;;7.07;59.41
61682;BME280;47577;43.610;25.010;2023-03-14T07:37:26;100524.69;;;7.18;58.58
61682;BME280;47577;43.610;25.010;2023-03-14T07:39:52;100526.28;;;7.28;57.84
61682;BME280;47577;43.610;25.010;2023-03-14T07:42:18;100523.53;;;7.32;57.51
61682;BME280;47577;43.610;25.010;2023-03-14T07:44:43;100521.66;;;7.39;58.38
61682;BME280;47577;43.610;25.010;2023-03-14T07:47:09;100531.81;;;7.61;57.13
61682;BME280;47577;43.610;25.010;2023-03-14T07:49:34;100520.16;;;7.71;57.01
61682;BME280;47577;43.610;25.010;2023-03-14T07:52:00;100513.75;;;7.83;56.26
61682;BME280;47577;43.610;25.010;2023-03-14T07:54:25;100518.81;;;7.94;54.76
61682;BME280;47577;43.610;25.010;2023-03-14T07:56:51;100518.56;;;8.04;57.60
61682;BME280;47577;43.610;25.010;2023-03-14T07:59:17;100517.69;;;8.05;56.37
61682;BME280;47577;43.610;25.010;2023-03-14T08:01:43;100522.81;;;8.13;55.41
61682;BME280;47577;43.610;25.010;2023-03-14T08:04:08;100517.47;;;8.16;57.35
61682;BME280;47577;43.610;25.010;2023-03-14T08:06:35;100511.88;;;8.29;56.02
61682;BME280;47577;43.610;25.010;2023-03-14T08:09:01;100515.13;;;8.41;59.02
61682;BME280;47577;43.610;25.010;2023-03-14T08:11:26;100513.31;;;8.44;57.86
61682;BME280;47577;43.610;25.010;2023-03-14T08:13:52;100507.03;;;8.49;54.89
61682;BME280;47577;43.610;25.010;2023-03-14T08:16:17;100510.69;;;8.44;56.31
61682;BME280;47577;43.610;25.010;2023-03-14T08:18:43;100506.00;;;8.55;56.72
61682;BME280;47577;43.610;25.010;2023-03-14T08:21:09;100503.03;;;8.69;57.49
61682;BME280;47577;43.610;25.010;2023-03-14T08:23:34;100496.47;;;8.84;57.00
61682;BME280;47577;43.610;25.010;2023-03-14T08:26:00;100497.69;;;9.05;57.43
61682;BME280;47577;43.610;25.010;2023-03-14T08:28:25;100491.22;;;9.15;54.68
61682;BME280;47577;43.610;25.010;2023-03-14T08:30:55;100495.88;;;9.07;52.10
61682;BME280;47577;43.610;25.010;2023-03-14T08:33:21;100480.22;;;9.30;55.84
61682;BME280;47577;43.610;25.010;2023-03-14T08:35:47;100473.88;;;9.36;53.18
61682;BME280;47577;43.610;25.010;2023-03-14T08:38:12;100475.44;;;9.43;53.69
61682;BME280;47577;43.610;25.010;2023-03-14T08:40:38;100475.00;;;9.59;52.47
61682;BME280;47577;43.610;25.010;2023-03-14T08:43:03;100472.00;;;9.71;53.99
61682;BME280;47577;43.610;25.010;2023-03-14T08:45:29;100478.72;;;9.83;50.87
61682;BME280;47577;43.610;25.010;2023-03-14T08:47:54;100479.63;;;9.83;52.98
61682;BME280;47577;43.610;25.010;2023-03-14T08:50:19;100472.88;;;10.01;51.88
61682;BME280;47577;43.610;25.010;2023-03-14T08:52:45;100481.59;;;10.06;50.69
61682;BME280;47577;43.610;25.010;2023-03-14T08:55:11;100465.31;;;10.17;51.57
61682;BME280;47577;43.610;25.010;2023-03-14T08:57:36;100460.75;;;10.51;53.10
61682;BME280;47577;43.610;25.010;2023-03-14T09:00:02;100463.81;;;10.65;51.66
61682;BME280;47577;43.610;25.010;2023-03-14T09:02:30;100448.41;;;10.75;49.29
61682;BME280;47577;43.610;25.010;2023-03-14T09:04:55;100440.63;;;10.95;49.87
61682;BME280;47577;43.610;25.010;2023-03-14T09:07:21;100447.00;;;11.16;49.23
61682;BME280;47577;43.610;25.010;2023-03-14T09:09:46;100445.56;;;11.31;47.28
61682;BME280;47577;43.610;25.010;2023-03-14T09:12:12;100440.78;;;11.41;48.17
61682;BME280;47577;43.610;25.010;2023-03-14T09:14:37;100440.44;;;11.50;46.80
61682;BME280;47577;43.610;25.010;2023-03-14T09:17:03;100439.13;;;11.62;43.55
61682;BME280;47577;43.610;25.010;2023-03-14T09:19:29;100441.84;;;11.61;44.86
61682;BME280;47577;43.610;25.010;2023-03-14T09:21:54;100428.34;;;11.65;45.12
61682;BME280;47577;43.610;25.010;2023-03-14T09:24:21;100425.28;;;11.76;47.10
61682;BME280;47577;43.610;25.010;2023-03-14T09:26:46;100411.38;;;11.92;47.00
61682;BME280;47577;43.610;25.010;2023-03-14T09:29:11;100409.91;;;12.06;45.10
61682;BME280;47577;43.610;25.010;2023-03-14T09:31:37;100407.19;;;12.30;46.21
61682;BME280;47577;43.610;25.010;2023-03-14T09:34:02;100399.44;;;12.46;45.18
61682;BME280;47577;43.610;25.010;2023-03-14T09:36:28;100399.19;;;12.52;44.53
61682;BME280;47577;43.610;25.010;2023-03-14T09:38:54;100394.34;;;12.62;44.97
61682;BME280;47577;43.610;25.010;2023-03-14T09:41:33;100386.34;;;12.62;43.87
61682;BME280;47577;43.610;25.010;2023-03-14T09:44:04;100385.56;;;12.58;43.48
61682;BME280;47577;43.610;25.010;2023-03-14T09:46:31;100385.97;;;12.49;45.53
61682;BME280;47577;43.610;25.010;2023-03-14T09:48:58;100375.88;;;12.78;45.79
61682;BME280;47577;43.610;25.010;2023-03-14T09:51:24;100370.25;;;12.84;44.01
61682;BME280;47577;43.610;25.010;2023-03-14T09:53:51;100360.31;;;12.67;43.41
61682;BME280;47577;43.610;25.010;2023-03-14T09:56:18;100350.06;;;12.78;43.61
61682;BME280;47577;43.610;25.010;2023-03-14T09:58:47;100348.31;;;12.98;43.09
61682;BME280;47577;43.610;25.010;2023-03-14T10:01:14;100344.16;;;13.11;43.09
61682;BME280;47577;43.610;25.010;2023-03-14T10:03:40;100341.72;;;13.26;42.78
61682;BME280;47577;43.610;25.010;2023-03-14T10:06:13;100330.19;;;13.44;42.39
61682;BME280;47577;43.610;25.010;2023-03-14T10:08:41;100335.91;;;13.56;40.37
61682;BME280;47577;43.610;25.010;2023-03-14T10:11:09;100325.25;;;13.16;42.36
61682;BME280;47577;43.610;25.010;2023-03-14T10:13:39;100322.72;;;13.52;41.17
61682;BME280;47577;43.610;25.010;2023-03-14T10:16:11;100317.50;;;13.68;39.01
61682;BME280;47577;43.610;25.010;2023-03-14T10:18:38;100308.66;;;13.85;37.53
61682;BME280;47577;43.610;25.010;2023-03-14T10:21:25;100292.84;;;14.17;40.64
61682;BME280;47577;43.610;25.010;2023-03-14T10:23:51;100283.34;;;14.29;37.82
61682;BME280;47577;43.610;25.010;2023-03-14T10:26:18;100276.72;;;14.54;39.42
61682;BME280;47577;43.610;25.010;2023-03-14T10:28:48;100261.91;;;14.64;37.68
61682;BME280;47577;43.610;25.010;2023-03-14T10:31:16;100253.94;;;14.80;37.05
61682;BME280;47577;43.610;25.010;2023-03-14T10:33:42;100247.75;;;14.79;37.34
61682;BME280;47577;43.610;25.010;2023-03-14T10:36:23;100242.91;;;14.86;39.81
61682;BME280;47577;43.610;25.010;2023-03-14T10:38:50;100242.28;;;15.14;37.13
61682;BME280;47577;43.610;25.010;2023-03-14T10:41:25;100239.84;;;15.26;38.25
61682;BME280;47577;43.610;25.010;2023-03-14T10:43:54;100236.31;;;15.41;35.94
61682;BME280;47577;43.610;25.010;2023-03-14T10:46:24;100225.25;;;15.47;34.42
61682;BME280;47577;43.610;25.010;2023-03-14T10:48:51;100222.47;;;15.65;35.29
61682;BME280;47577;43.610;25.010;2023-03-14T10:51:18;100210.81;;;15.82;35.48
61682;BME280;47577;43.610;25.010;2023-03-14T10:53:49;100209.13;;;15.95;35.72
61682;BME280;47577;43.610;25.010;2023-03-14T10:56:16;100197.41;;;16.12;34.38
61682;BME280;47577;43.610;25.010;2023-03-14T10:58:46;100193.28;;;16.21;34.03
61682;BME280;47577;43.610;25.010;2023-03-14T11:04:06;100190.50;;;16.22;33.33
61682;BME280;47577;43.610;25.010;2023-03-14T11:11:46;100172.72;;;16.50;33.43
61682;BME280;47577;43.610;25.010;2023-03-14T11:14:33;100169.00;;;16.53;31.12
61682;BME280;47577;43.610;25.010;2023-03-14T11:17:18;100157.69;;;16.62;32.45
61682;BME280;47577;43.610;25.010;2023-03-14T11:19:47;100157.88;;;16.59;32.67
61682;BME280;47577;43.610;25.010;2023-03-14T11:28:14;100130.44;;;16.68;32.46
61682;BME280;47577;43.610;25.010;2023-03-14T11:32:50;100111.25;;;17.03;30.76
61682;BME280;47577;43.610;25.010;2023-03-14T11:35:26;100099.56;;;16.90;31.78
61682;BME280;47577;43.610;25.010;2023-03-14T11:38:00;100106.69;;;16.62;31.55
61682;BME280;47577;43.610;25.010;2023-03-14T11:40:29;100092.56;;;16.87;30.46
61682;BME280;47577;43.610;25.010;2023-03-14T11:43:41;100080.75;;;17.04;30.87
61682;BME280;47577;43.610;25.010;2023-03-14T11:45:42;100070.91;;;17.17;29.32
61682;BME280;47577;43.610;25.010;2023-03-14T11:48:19;100066.03;;;17.50;30.88
61682;BME280;47577;43.610;25.010;2023-03-14T11:50:48;100058.81;;;17.38;29.12
61682;BME280;47577;43.610;25.010;2023-03-14T11:53:22;100050.13;;;17.47;30.09
61682;BME280;47577;43.610;25.010;2023-03-14T11:55:52;100048.41;;;17.59;29.91
61682;BME280;47577;43.610;25.010;2023-03-14T11:58:34;100043.38;;;17.80;27.12
61682;BME280;47577;43.610;25.010;2023-03-14T12:01:06;100042.78;;;18.02;29.79
61682;BME280;47577;43.610;25.010;2023-03-14T12:03:50;100029.75;;;18.21;29.39
61682;BME280;47577;43.610;25.010;2023-03-14T12:09:04;100024.16;;;18.24;27.30
61682;BME280;47577;43.610;25.010;2023-03-14T12:14:20;100006.69;;;18.30;29.01
61682;BME280;47577;43.610;25.010;2023-03-14T12:16:47;100003.16;;;18.30;29.16
61682;BME280;47577;43.610;25.010;2023-03-14T12:21:52;99991.66;;;18.15;29.78
61682;BME280;47577;43.610;25.010;2023-03-14T12:24:22;99966.94;;;18.09;30.53
61682;BME280;47577;43.610;25.010;2023-03-14T12:26:53;99984.50;;;18.39;31.01
61682;BME280;47577;43.610;25.010;2023-03-14T12:29:18;99980.03;;;18.51;29.53
61682;BME280;47577;43.610;25.010;2023-03-14T12:32:29;99979.59;;;18.57;30.08
61682;BME280;47577;43.610;25.010;2023-03-14T12:34:33;99965.97;;;18.72;29.89
61682;BME280;47577;43.610;25.010;2023-03-14T12:37:01;99965.63;;;18.76;29.80
61682;BME280;47577;43.610;25.010;2023-03-14T12:39:45;99963.44;;;18.81;29.88
61682;BME280;47577;43.610;25.010;2023-03-14T12:42:20;99967.59;;;18.98;28.63
61682;BME280;47577;43.610;25.010;2023-03-14T12:44:48;99965.28;;;19.05;29.42
61682;BME280;47577;43.610;25.010;2023-03-14T12:49:46;99956.88;;;19.10;28.90
61682;BME280;47577;43.610;25.010;2023-03-14T12:52:16;99944.97;;;19.12;27.61
61682;BME280;47577;43.610;25.010;2023-03-14T12:54:46;99943.00;;;19.14;27.46
61682;BME280;47577;43.610;25.010;2023-03-14T12:59:51;99940.56;;;19.00;29.02
61682;BME280;47577;43.610;25.010;2023-03-14T13:02:21;99935.41;;;18.97;27.63
61682;BME280;47577;43.610;25.010;2023-03-14T13:15:23;99922.44;;;19.02;29.10
61682;BME280;47577;43.610;25.010;2023-03-14T13:17:49;99921.81;;;18.98;27.93
61682;BME280;47577;43.610;25.010;2023-03-14T13:20:23;99926.53;;;18.95;27.60
61682;BME280;47577;43.610;25.010;2023-03-14T13:22:50;99918.22;;;18.74;28.13
61682;BME280;47577;43.610;25.010;2023-03-14T13:25:16;99908.13;;;18.53;27.66
61682;BME280;47577;43.610;25.010;2023-03-14T13:27:47;99900.94;;;18.41;28.10
61682;BME280;47577;43.610;25.010;2023-03-14T13:32:42;99889.97;;;18.44;28.63
61682;BME280;47577;43.610;25.010;2023-03-14T13:35:15;99882.78;;;18.56;29.95
61682;BME280;47577;43.610;25.010;2023-03-14T13:37:42;99874.22;;;18.51;29.36
61682;BME280;47577;43.610;25.010;2023-03-14T13:43:10;99863.50;;;18.38;29.52
61682;BME280;47577;43.610;25.010;2023-03-14T13:45:50;99861.81;;;18.37;28.61
61682;BME280;47577;43.610;25.010;2023-03-14T13:48:16;99857.09;;;18.27;27.98
61682;BME280;47577;43.610;25.010;2023-03-14T13:53:26;99847.13;;;18.41;28.38
61682;BME280;47577;43.610;25.010;2023-03-14T13:55:52;99843.81;;;18.37;28.71
61682;BME280;47577;43.610;25.010;2023-03-14T13:58:23;99837.81;;;18.34;28.21
61682;BME280;47577;43.610;25.010;2023-03-14T14:01:02;99825.81;;;18.38;28.07
61682;BME280;47577;43.610;25.010;2023-03-14T14:03:32;99822.75;;;18.31;28.25
61682;BME280;47577;43.610;25.010;2023-03-14T14:05:58;99809.41;;;18.30;28.78
61682;BME280;47577;43.610;25.010;2023-03-14T14:08:24;99805.41;;;18.35;29.15
61682;BME280;47577;43.610;25.010;2023-03-14T14:10:50;99803.16;;;18.29;28.20